PWSweather.com
Personal Weather Stations
Station Observations
ISYDDANM23
Felsted, AabenraaDK 6200

FelstedAabenraaDK 6200

Lat: 54.977066, Lon: 9.507192

Elevation: 135

Station Type: Davis Vantage Pro 2 Plus 24H

http://www.valkaer.dk

High Low Average
Temperature 67.5°F19.7°C 50.9°F10.5°C 58.6°F14.8°C
Dew Point 55.4°F13.0°C 47.5°F8.6°C 50.9°F10.5°C
Winds 17.3 mph 27.8 kmh 2.3 mph 3.7 kmh 10.0 mph WNW16.1 kmh WNW
Wind Gusts 25.3 mph40.7 kmh 3.5 mph5.6 kmh 14.0 mph22.5 kmh
Humidity 89% 63% 76%
Pressure 30.28 in1025.4 mb 30.23 in1023.7 mb -
Precipitation 0.00 in0.0 mm - -
Hour Temp Dew Point Humidity Winds Wind Gusts Pressure Precip Precip Rate Daily Precip Total
12:00 AM 54.1°F12.3°C 48.8°F9.3°C 82% 9.2 mph WNW14.8 kmh WNW 11.5 mph18.5 kmh 30.24 in1024.0 mb - 0.00 in0.0 mm 0.00 in0.0 mm
12:10 AM 54.1°F12.3°C 48.7°F9.3°C 82% 11.5 mph WNW18.5 kmh WNW 15.0 mph24.1 kmh 30.24 in1024.0 mb - 0.00 in0.0 mm 0.00 in0.0 mm
12:15 AM 54.0°F12.2°C 48.6°F9.2°C 82% 9.2 mph WNW14.8 kmh WNW 12.7 mph20.4 kmh 30.24 in1024.0 mb - 0.00 in0.0 mm 0.00 in0.0 mm
12:20 AM 53.9°F12.2°C 48.2°F9.0°C 81% 10.4 mph WNW16.7 kmh WNW 11.5 mph18.5 kmh 30.24 in1024.0 mb - 0.00 in0.0 mm 0.00 in0.0 mm
12:25 AM 53.8°F12.1°C 48.1°F8.9°C 81% 10.4 mph WNW16.7 kmh WNW 16.1 mph25.9 kmh 30.24 in1024.0 mb - 0.00 in0.0 mm 0.00 in0.0 mm
12:30 AM 53.8°F12.1°C 48.1°F8.9°C 81% 9.2 mph WNW14.8 kmh WNW 12.7 mph20.4 kmh 30.24 in1024.0 mb - 0.00 in0.0 mm 0.00 in0.0 mm
12:35 AM 53.8°F12.1°C 48.1°F8.9°C 81% 11.5 mph WNW18.5 kmh WNW 13.8 mph22.2 kmh 30.24 in1024.0 mb - 0.00 in0.0 mm 0.00 in0.0 mm
12:40 AM 53.7°F12.1°C 48.0°F8.9°C 81% 6.9 mph WNW11.1 kmh WNW 11.5 mph18.5 kmh 30.24 in1024.0 mb - 0.00 in0.0 mm 0.00 in0.0 mm
12:45 AM 53.7°F12.1°C 48.4°F9.1°C 82% 6.9 mph NW11.1 kmh NW 11.5 mph18.5 kmh 30.24 in1024.0 mb - 0.00 in0.0 mm 0.00 in0.0 mm
12:50 AM 53.7°F12.1°C 48.4°F9.1°C 82% 9.2 mph NW14.8 kmh NW 15.0 mph24.1 kmh 30.24 in1024.0 mb - 0.00 in0.0 mm 0.00 in0.0 mm
12:55 AM 53.7°F12.1°C 48.0°F8.9°C 81% 9.2 mph NW14.8 kmh NW 12.7 mph20.4 kmh 30.24 in1024.0 mb - 0.00 in0.0 mm 0.00 in0.0 mm
01:00 AM 53.6°F12.0°C 47.9°F8.8°C 81% 8.1 mph WNW13.0 kmh WNW 10.4 mph16.7 kmh 30.24 in1024.0 mb - 0.00 in0.0 mm 0.00 in0.0 mm
01:10 AM 53.4°F11.9°C 47.7°F8.7°C 81% 6.9 mph WNW11.1 kmh WNW 17.3 mph27.8 kmh 30.24 in1024.0 mb - 0.00 in0.0 mm 0.00 in0.0 mm
01:15 AM 53.4°F11.9°C 47.7°F8.7°C 81% 5.8 mph WNW9.3 kmh WNW 9.2 mph14.8 kmh 30.24 in1024.0 mb - 0.00 in0.0 mm 0.00 in0.0 mm
01:20 AM 53.3°F11.8°C 47.9°F8.8°C 82% 6.9 mph NW11.1 kmh NW 9.2 mph14.8 kmh 30.24 in1024.0 mb - 0.00 in0.0 mm 0.00 in0.0 mm
01:25 AM 53.4°F11.9°C 48.1°F8.9°C 82% 8.1 mph WNW13.0 kmh WNW 13.8 mph22.2 kmh 30.23 in1023.7 mb - 0.00 in0.0 mm 0.00 in0.0 mm
01:30 AM 53.7°F12.1°C 48.0°F8.9°C 81% 6.9 mph NW11.1 kmh NW 10.4 mph16.7 kmh 30.24 in1024.0 mb - 0.00 in0.0 mm 0.00 in0.0 mm
01:35 AM 53.8°F12.1°C 48.1°F8.9°C 81% 10.4 mph WNW16.7 kmh WNW 12.7 mph20.4 kmh 30.24 in1024.0 mb - 0.00 in0.0 mm 0.00 in0.0 mm
01:40 AM 53.9°F12.2°C 47.9°F8.8°C 80% 10.4 mph WNW16.7 kmh WNW 15.0 mph24.1 kmh 30.24 in1024.0 mb - 0.00 in0.0 mm 0.00 in0.0 mm
01:45 AM 54.0°F12.2°C 48.0°F8.9°C 80% 8.1 mph WNW13.0 kmh WNW 11.5 mph18.5 kmh 30.24 in1024.0 mb - 0.00 in0.0 mm 0.00 in0.0 mm
01:50 AM 54.1°F12.3°C 48.1°F8.9°C 80% 9.2 mph WNW14.8 kmh WNW 11.5 mph18.5 kmh 30.24 in1024.0 mb - 0.00 in0.0 mm 0.00 in0.0 mm
01:55 AM 54.2°F12.3°C 48.1°F8.9°C 80% 10.4 mph WNW16.7 kmh WNW 16.1 mph25.9 kmh 30.23 in1023.7 mb - 0.00 in0.0 mm 0.00 in0.0 mm
02:00 AM 54.3°F12.4°C 48.2°F9.0°C 80% 11.5 mph NW18.5 kmh NW 13.8 mph22.2 kmh 30.23 in1023.7 mb - 0.00 in0.0 mm 0.00 in0.0 mm
02:10 AM 54.4°F12.4°C 48.4°F9.1°C 80% 9.2 mph WNW14.8 kmh WNW 15.0 mph24.1 kmh 30.24 in1024.0 mb - 0.00 in0.0 mm 0.00 in0.0 mm
02:15 AM 54.5°F12.5°C 48.5°F9.2°C 80% 11.5 mph WNW18.5 kmh WNW 15.0 mph24.1 kmh 30.24 in1024.0 mb - 0.00 in0.0 mm 0.00 in0.0 mm
02:20 AM 54.6°F12.6°C 48.2°F9.0°C 79% 8.1 mph WNW13.0 kmh WNW 11.5 mph18.5 kmh 30.24 in1024.0 mb - 0.00 in0.0 mm 0.00 in0.0 mm
02:25 AM 54.6°F12.6°C 48.2°F9.0°C 79% 11.5 mph WNW18.5 kmh WNW 18.4 mph29.6 kmh 30.24 in1024.0 mb - 0.00 in0.0 mm 0.00 in0.0 mm
02:30 AM 54.6°F12.6°C 48.2°F9.0°C 79% 15.0 mph WNW24.1 kmh WNW 16.1 mph25.9 kmh 30.24 in1024.0 mb - 0.00 in0.0 mm 0.00 in0.0 mm
02:35 AM 54.5°F12.5°C 48.2°F9.0°C 79% 11.5 mph W18.5 kmh W 13.8 mph22.2 kmh 30.24 in1024.0 mb - 0.00 in0.0 mm 0.00 in0.0 mm
02:40 AM 54.5°F12.5°C 48.1°F8.9°C 79% 9.2 mph WNW14.8 kmh WNW 10.4 mph16.7 kmh 30.24 in1024.0 mb - 0.00 in0.0 mm 0.00 in0.0 mm
02:45 AM 54.5°F12.5°C 48.1°F8.9°C 79% 13.8 mph WNW22.2 kmh WNW 19.6 mph31.5 kmh 30.24 in1024.0 mb - 0.00 in0.0 mm 0.00 in0.0 mm
02:50 AM 54.6°F12.6°C 48.2°F9.0°C 79% 13.8 mph NW22.2 kmh NW 19.6 mph31.5 kmh 30.24 in1024.0 mb - 0.00 in0.0 mm 0.00 in0.0 mm
02:55 AM 54.7°F12.6°C 48.3°F9.1°C 79% 12.7 mph WNW20.4 kmh WNW 12.7 mph20.4 kmh 30.24 in1024.0 mb - 0.00 in0.0 mm 0.00 in0.0 mm
03:00 AM 54.7°F12.6°C 48.3°F9.1°C 79% 10.4 mph NW16.7 kmh NW 13.8 mph22.2 kmh 30.24 in1024.0 mb - 0.00 in0.0 mm 0.00 in0.0 mm
03:10 AM 54.6°F12.6°C 48.2°F9.0°C 79% 8.1 mph W13.0 kmh W 10.4 mph16.7 kmh 30.24 in1024.0 mb - 0.00 in0.0 mm 0.00 in0.0 mm
03:15 AM 54.5°F12.5°C 48.1°F8.9°C 79% 12.7 mph NW20.4 kmh NW 13.8 mph22.2 kmh 30.24 in1024.0 mb - 0.00 in0.0 mm 0.00 in0.0 mm
03:20 AM 54.5°F12.5°C 48.1°F8.9°C 79% 11.5 mph NW18.5 kmh NW 18.4 mph29.6 kmh 30.24 in1024.0 mb - 0.00 in0.0 mm 0.00 in0.0 mm
03:25 AM 54.5°F12.5°C 48.1°F8.9°C 79% 12.7 mph WNW20.4 kmh WNW 16.1 mph25.9 kmh 30.24 in1024.0 mb - 0.00 in0.0 mm 0.00 in0.0 mm
03:30 AM 54.5°F12.5°C 48.1°F8.9°C 79% 11.5 mph NW18.5 kmh NW 18.4 mph29.6 kmh 30.24 in1024.0 mb - 0.00 in0.0 mm 0.00 in0.0 mm
03:35 AM 54.5°F12.5°C 48.1°F8.9°C 79% 12.7 mph NW20.4 kmh NW 16.1 mph25.9 kmh 30.24 in1024.0 mb - 0.00 in0.0 mm 0.00 in0.0 mm
03:40 AM 54.4°F12.4°C 48.1°F8.9°C 79% 12.7 mph WNW20.4 kmh WNW 20.7 mph33.3 kmh 30.24 in1024.0 mb - 0.00 in0.0 mm 0.00 in0.0 mm
03:45 AM 54.4°F12.4°C 48.0°F8.9°C 79% 13.8 mph NW22.2 kmh NW 19.6 mph31.5 kmh 30.24 in1024.0 mb - 0.00 in0.0 mm 0.00 in0.0 mm
03:50 AM 54.3°F12.4°C 47.9°F8.8°C 79% 10.4 mph WNW16.7 kmh WNW 17.3 mph27.8 kmh 30.24 in1024.0 mb - 0.00 in0.0 mm 0.00 in0.0 mm
03:55 AM 54.2°F12.3°C 47.8°F8.8°C 79% 10.4 mph WNW16.7 kmh WNW 13.8 mph22.2 kmh 30.24 in1024.0 mb - 0.00 in0.0 mm 0.00 in0.0 mm
04:00 AM 54.2°F12.3°C 47.8°F8.8°C 79% 9.2 mph WNW14.8 kmh WNW 11.5 mph18.5 kmh 30.24 in1024.0 mb - 0.00 in0.0 mm 0.00 in0.0 mm
04:10 AM 54.1°F12.3°C 47.7°F8.7°C 79% 12.7 mph WNW20.4 kmh WNW 18.4 mph29.6 kmh 30.24 in1024.0 mb - 0.00 in0.0 mm 0.00 in0.0 mm
04:15 AM 54.1°F12.3°C 47.7°F8.7°C 79% 10.4 mph WNW16.7 kmh WNW 15.0 mph24.1 kmh 30.24 in1024.0 mb - 0.00 in0.0 mm 0.00 in0.0 mm
04:20 AM 54.0°F12.2°C 47.6°F8.7°C 79% 10.4 mph WNW16.7 kmh WNW 13.8 mph22.2 kmh 30.23 in1023.7 mb - 0.00 in0.0 mm 0.00 in0.0 mm
04:25 AM 53.9°F12.2°C 47.6°F8.7°C 79% 10.4 mph NW16.7 kmh NW 13.8 mph22.2 kmh 30.24 in1024.0 mb - 0.00 in0.0 mm 0.00 in0.0 mm
04:30 AM 54.0°F12.2°C 47.6°F8.7°C 79% 8.1 mph NW13.0 kmh NW 17.3 mph27.8 kmh 30.23 in1023.7 mb - 0.00 in0.0 mm 0.00 in0.0 mm
04:35 AM 54.0°F12.2°C 47.6°F8.7°C 79% 10.4 mph NW16.7 kmh NW 15.0 mph24.1 kmh 30.24 in1024.0 mb - 0.00 in0.0 mm 0.00 in0.0 mm
04:40 AM 54.0°F12.2°C 48.0°F8.9°C 80% 6.9 mph WNW11.1 kmh WNW 12.7 mph20.4 kmh 30.24 in1024.0 mb - 0.00 in0.0 mm 0.00 in0.0 mm
04:45 AM 54.1°F12.3°C 48.0°F8.9°C 80% 10.4 mph NW16.7 kmh NW 12.7 mph20.4 kmh 30.24 in1024.0 mb - 0.00 in0.0 mm 0.00 in0.0 mm
04:50 AM 54.3°F12.4°C 48.2°F9.0°C 80% 11.5 mph NW18.5 kmh NW 15.0 mph24.1 kmh 30.24 in1024.0 mb - 0.00 in0.0 mm 0.00 in0.0 mm
04:55 AM 54.4°F12.4°C 48.1°F8.9°C 79% 10.4 mph NW16.7 kmh NW 16.1 mph25.9 kmh 30.24 in1024.0 mb - 0.00 in0.0 mm 0.00 in0.0 mm
05:00 AM 54.6°F12.6°C 48.2°F9.0°C 79% 11.5 mph NW18.5 kmh NW 17.3 mph27.8 kmh 30.23 in1023.7 mb - 0.00 in0.0 mm 0.00 in0.0 mm
05:10 AM 54.8°F12.7°C 48.4°F9.1°C 79% 12.7 mph NW20.4 kmh NW 16.1 mph25.9 kmh 30.23 in1023.7 mb - 0.00 in0.0 mm 0.00 in0.0 mm
05:15 AM 54.9°F12.7°C 48.5°F9.2°C 79% 9.2 mph NW14.8 kmh NW 16.1 mph25.9 kmh 30.24 in1024.0 mb - 0.00 in0.0 mm 0.00 in0.0 mm
05:20 AM 55.1°F12.8°C 49.0°F9.4°C 80% 12.7 mph WNW20.4 kmh WNW 12.7 mph20.4 kmh 30.24 in1024.0 mb - 0.00 in0.0 mm 0.00 in0.0 mm
05:25 AM 55.2°F12.9°C 49.1°F9.5°C 80% 12.7 mph WNW20.4 kmh WNW 18.4 mph29.6 kmh 30.23 in1023.7 mb - 0.00 in0.0 mm 0.00 in0.0 mm
05:30 AM 55.2°F12.9°C 49.2°F9.6°C 80% 11.5 mph WNW18.5 kmh WNW 12.7 mph20.4 kmh 30.23 in1023.7 mb - 0.00 in0.0 mm 0.00 in0.0 mm
05:35 AM 55.5°F13.1°C 49.1°F9.5°C 79% 12.7 mph WNW20.4 kmh WNW 17.3 mph27.8 kmh 30.23 in1023.7 mb - 0.00 in0.0 mm 0.00 in0.0 mm
05:40 AM 55.7°F13.2°C 49.6°F9.8°C 80% 10.4 mph WNW16.7 kmh WNW 16.1 mph25.9 kmh 30.23 in1023.7 mb - 0.00 in0.0 mm 0.00 in0.0 mm
05:45 AM 55.8°F13.2°C 49.4°F9.7°C 79% 10.4 mph WNW16.7 kmh WNW 13.8 mph22.2 kmh 30.23 in1023.7 mb - 0.00 in0.0 mm 0.00 in0.0 mm
05:50 AM 55.7°F13.2°C 49.3°F9.6°C 79% 12.7 mph WNW20.4 kmh WNW 13.8 mph22.2 kmh 30.23 in1023.7 mb - 0.00 in0.0 mm 0.00 in0.0 mm
05:55 AM 55.7°F13.2°C 49.3°F9.6°C 79% 10.4 mph NW16.7 kmh NW 11.5 mph18.5 kmh 30.23 in1023.7 mb - 0.00 in0.0 mm 0.00 in0.0 mm
06:00 AM 55.9°F13.3°C 49.5°F9.7°C 79% 12.7 mph W20.4 kmh W 19.6 mph31.5 kmh 30.23 in1023.7 mb - 0.00 in0.0 mm 0.00 in0.0 mm
06:10 AM 56.3°F13.5°C 49.5°F9.7°C 78% 13.8 mph NW22.2 kmh NW 19.6 mph31.5 kmh 30.23 in1023.7 mb - 0.00 in0.0 mm 0.00 in0.0 mm
06:15 AM 56.3°F13.5°C 49.5°F9.7°C 78% 15.0 mph WNW24.1 kmh WNW 23.0 mph37.0 kmh 30.23 in1023.7 mb - 0.00 in0.0 mm 0.00 in0.0 mm
06:20 AM 56.5°F13.6°C 49.7°F9.8°C 78% 12.7 mph WNW20.4 kmh WNW 18.4 mph29.6 kmh 30.23 in1023.7 mb - 0.00 in0.0 mm 0.00 in0.0 mm
06:25 AM 56.6°F13.7°C 49.9°F9.9°C 78% 11.5 mph NW18.5 kmh NW 16.1 mph25.9 kmh 30.23 in1023.7 mb - 0.00 in0.0 mm 0.00 in0.0 mm
06:30 AM 56.4°F13.6°C 49.6°F9.8°C 78% 11.5 mph NW18.5 kmh NW 16.1 mph25.9 kmh 30.23 in1023.7 mb - 0.00 in0.0 mm 0.00 in0.0 mm
06:35 AM 56.7°F13.7°C 50.3°F10.2°C 79% 10.4 mph NW16.7 kmh NW 12.7 mph20.4 kmh 30.23 in1023.7 mb - 0.00 in0.0 mm 0.00 in0.0 mm
06:40 AM 57.4°F14.1°C 50.6°F10.3°C 78% 11.5 mph NW18.5 kmh NW 13.8 mph22.2 kmh 30.23 in1023.7 mb - 0.00 in0.0 mm 0.00 in0.0 mm
06:45 AM 57.5°F14.2°C 50.3°F10.2°C 77% 15.0 mph WNW24.1 kmh WNW 18.4 mph29.6 kmh 30.23 in1023.7 mb - 0.00 in0.0 mm 0.00 in0.0 mm
06:50 AM 57.7°F14.3°C 50.5°F10.3°C 77% 12.7 mph WNW20.4 kmh WNW 19.6 mph31.5 kmh 30.23 in1023.7 mb - 0.00 in0.0 mm 0.00 in0.0 mm
06:55 AM 57.2°F14.0°C 50.1°F10.1°C 77% 13.8 mph W22.2 kmh W 19.6 mph31.5 kmh 30.23 in1023.7 mb - 0.00 in0.0 mm 0.00 in0.0 mm
07:00 AM 57.2°F14.0°C 50.4°F10.2°C 78% 15.0 mph WNW24.1 kmh WNW 19.6 mph31.5 kmh 30.23 in1023.7 mb - 0.00 in0.0 mm 0.00 in0.0 mm
07:10 AM 57.2°F14.0°C 50.7°F10.4°C 79% 13.8 mph WNW22.2 kmh WNW 18.4 mph29.6 kmh 30.23 in1023.7 mb - 0.00 in0.0 mm 0.00 in0.0 mm
07:15 AM 57.4°F14.1°C 50.6°F10.3°C 78% 16.1 mph W25.9 kmh W 23.0 mph37.0 kmh 30.23 in1023.7 mb - 0.00 in0.0 mm 0.00 in0.0 mm
07:20 AM 57.1°F13.9°C 50.7°F10.4°C 79% 13.8 mph WNW22.2 kmh WNW 17.3 mph27.8 kmh 30.23 in1023.7 mb - 0.00 in0.0 mm 0.00 in0.0 mm
07:25 AM 57.0°F13.9°C 50.6°F10.3°C 79% 10.4 mph NW16.7 kmh NW 13.8 mph22.2 kmh 30.23 in1023.7 mb - 0.00 in0.0 mm 0.00 in0.0 mm
07:30 AM 57.2°F14.0°C 50.7°F10.4°C 79% 15.0 mph WNW24.1 kmh WNW 19.6 mph31.5 kmh 30.23 in1023.7 mb - 0.00 in0.0 mm 0.00 in0.0 mm
07:35 AM 57.2°F14.0°C 50.7°F10.4°C 79% 12.7 mph WNW20.4 kmh WNW 17.3 mph27.8 kmh 30.23 in1023.7 mb - 0.00 in0.0 mm 0.00 in0.0 mm
07:40 AM 57.2°F14.0°C 51.1°F10.6°C 80% 13.8 mph WNW22.2 kmh WNW 19.6 mph31.5 kmh 30.23 in1023.7 mb - 0.00 in0.0 mm 0.00 in0.0 mm
07:45 AM 57.0°F13.9°C 50.9°F10.5°C 80% 15.0 mph WNW24.1 kmh WNW 19.6 mph31.5 kmh 30.23 in1023.7 mb - 0.00 in0.0 mm 0.00 in0.0 mm
07:50 AM 57.0°F13.9°C 50.9°F10.5°C 80% 13.8 mph NW22.2 kmh NW 17.3 mph27.8 kmh 30.24 in1024.0 mb - 0.00 in0.0 mm 0.00 in0.0 mm
07:55 AM 57.4°F14.1°C 51.3°F10.7°C 80% 10.4 mph NW16.7 kmh NW 12.7 mph20.4 kmh 30.24 in1024.0 mb - 0.00 in0.0 mm 0.00 in0.0 mm
08:00 AM 57.9°F14.4°C 51.4°F10.8°C 79% 13.8 mph NW22.2 kmh NW 19.6 mph31.5 kmh 30.23 in1023.7 mb - 0.00 in0.0 mm 0.00 in0.0 mm
08:10 AM 57.4°F14.1°C 51.0°F10.6°C 79% 16.1 mph NW25.9 kmh NW 21.9 mph35.2 kmh 30.24 in1024.0 mb - 0.00 in0.0 mm 0.00 in0.0 mm
08:15 AM 57.4°F14.1°C 51.0°F10.6°C 79% 13.8 mph NW22.2 kmh NW 18.4 mph29.6 kmh 30.24 in1024.0 mb - 0.00 in0.0 mm 0.00 in0.0 mm
08:20 AM 57.9°F14.4°C 51.1°F10.6°C 78% 17.3 mph NW27.8 kmh NW 21.9 mph35.2 kmh 30.24 in1024.0 mb - 0.00 in0.0 mm 0.00 in0.0 mm
08:25 AM 58.2°F14.6°C 51.4°F10.8°C 78% 16.1 mph WNW25.9 kmh WNW 20.7 mph33.3 kmh 30.24 in1024.0 mb - 0.00 in0.0 mm 0.00 in0.0 mm
08:30 AM 58.9°F14.9°C 52.1°F11.2°C 78% 15.0 mph NW24.1 kmh NW 19.6 mph31.5 kmh 30.25 in1024.4 mb - 0.00 in0.0 mm 0.00 in0.0 mm
08:35 AM 58.8°F14.9°C 51.6°F10.9°C 77% 13.8 mph WNW22.2 kmh WNW 21.9 mph35.2 kmh 30.25 in1024.4 mb - 0.00 in0.0 mm 0.00 in0.0 mm
08:40 AM 58.9°F14.9°C 51.7°F10.9°C 77% 11.5 mph NW18.5 kmh NW 17.3 mph27.8 kmh 30.25 in1024.4 mb - 0.00 in0.0 mm 0.00 in0.0 mm
08:45 AM 59.2°F15.1°C 52.3°F11.3°C 78% 9.2 mph WNW14.8 kmh WNW 18.4 mph29.6 kmh 30.25 in1024.4 mb - 0.00 in0.0 mm 0.00 in0.0 mm
08:50 AM 59.0°F15.0°C 51.8°F11.0°C 77% 11.5 mph WNW18.5 kmh WNW 25.3 mph40.7 kmh 30.25 in1024.4 mb - 0.00 in0.0 mm 0.00 in0.0 mm
08:55 AM 59.2°F15.1°C 52.4°F11.3°C 78% 10.4 mph W16.7 kmh W 15.0 mph24.1 kmh 30.25 in1024.4 mb - 0.00 in0.0 mm 0.00 in0.0 mm
09:00 AM 59.8°F15.4°C 52.2°F11.2°C 76% 13.8 mph NW22.2 kmh NW 23.0 mph37.0 kmh 30.25 in1024.4 mb - 0.00 in0.0 mm 0.00 in0.0 mm
09:10 AM 60.5°F15.8°C 52.2°F11.2°C 74% 12.7 mph NW20.4 kmh NW 19.6 mph31.5 kmh 30.26 in1024.7 mb - 0.00 in0.0 mm 0.00 in0.0 mm
09:15 AM 59.7°F15.4°C 51.8°F11.0°C 75% 12.7 mph NW20.4 kmh NW 19.6 mph31.5 kmh 30.26 in1024.7 mb - 0.00 in0.0 mm 0.00 in0.0 mm
09:20 AM 59.6°F15.3°C 51.7°F10.9°C 75% 13.8 mph WNW22.2 kmh WNW 15.0 mph24.1 kmh 30.26 in1024.7 mb - 0.00 in0.0 mm 0.00 in0.0 mm
09:25 AM 59.9°F15.5°C 52.3°F11.3°C 76% 13.8 mph WNW22.2 kmh WNW 18.4 mph29.6 kmh 30.26 in1024.7 mb - 0.00 in0.0 mm 0.00 in0.0 mm
09:30 AM 60.6°F15.9°C 53.0°F11.7°C 76% 10.4 mph NW16.7 kmh NW 11.5 mph18.5 kmh 30.26 in1024.7 mb - 0.00 in0.0 mm 0.00 in0.0 mm
09:35 AM 60.8°F16.0°C 53.5°F11.9°C 77% 8.1 mph WNW13.0 kmh WNW 11.5 mph18.5 kmh 30.26 in1024.7 mb - 0.00 in0.0 mm 0.00 in0.0 mm
09:40 AM 60.6°F15.9°C 53.0°F11.7°C 76% 11.5 mph WNW18.5 kmh WNW 16.1 mph25.9 kmh 30.26 in1024.7 mb - 0.00 in0.0 mm 0.00 in0.0 mm
09:45 AM 60.8°F16.0°C 53.2°F11.8°C 76% 8.1 mph NW13.0 kmh NW 10.4 mph16.7 kmh 30.26 in1024.7 mb - 0.00 in0.0 mm 0.00 in0.0 mm
09:50 AM 60.6°F15.9°C 52.6°F11.4°C 75% 10.4 mph NW16.7 kmh NW 13.8 mph22.2 kmh 30.26 in1024.7 mb - 0.00 in0.0 mm 0.00 in0.0 mm
09:55 AM 61.2°F16.2°C 53.2°F11.8°C 75% 9.2 mph NW14.8 kmh NW 15.0 mph24.1 kmh 30.26 in1024.7 mb - 0.00 in0.0 mm 0.00 in0.0 mm
10:00 AM 61.2°F16.2°C 53.2°F11.8°C 75% 10.4 mph WNW16.7 kmh WNW 15.0 mph24.1 kmh 30.26 in1024.7 mb - 0.00 in0.0 mm 0.00 in0.0 mm
10:10 AM 61.3°F16.3°C 52.9°F11.6°C 74% 10.4 mph NW16.7 kmh NW 13.8 mph22.2 kmh 30.26 in1024.7 mb - 0.00 in0.0 mm 0.00 in0.0 mm
10:15 AM 62.0°F16.7°C 53.6°F12.0°C 74% 8.1 mph NW13.0 kmh NW 12.7 mph20.4 kmh 30.26 in1024.7 mb - 0.00 in0.0 mm 0.00 in0.0 mm
10:20 AM 61.4°F16.3°C 53.0°F11.7°C 74% 11.5 mph WNW18.5 kmh WNW 16.1 mph25.9 kmh 30.26 in1024.7 mb - 0.00 in0.0 mm 0.00 in0.0 mm
10:25 AM 61.2°F16.2°C 53.2°F11.8°C 75% 8.1 mph WNW13.0 kmh WNW 13.8 mph22.2 kmh 30.26 in1024.7 mb - 0.00 in0.0 mm 0.00 in0.0 mm
10:30 AM 60.9°F16.1°C 52.6°F11.4°C 74% 11.5 mph WNW18.5 kmh WNW 15.0 mph24.1 kmh 30.27 in1025.1 mb - 0.00 in0.0 mm 0.00 in0.0 mm
10:35 AM 61.2°F16.2°C 52.8°F11.6°C 74% 10.4 mph NW16.7 kmh NW 11.5 mph18.5 kmh 30.26 in1024.7 mb - 0.00 in0.0 mm 0.00 in0.0 mm
10:40 AM 61.5°F16.4°C 53.8°F12.1°C 76% 6.9 mph NW11.1 kmh NW 10.4 mph16.7 kmh 30.26 in1024.7 mb - 0.00 in0.0 mm 0.00 in0.0 mm
10:45 AM 61.7°F16.5°C 53.7°F12.1°C 75% 12.7 mph WNW20.4 kmh WNW 16.1 mph25.9 kmh 30.26 in1024.7 mb - 0.00 in0.0 mm 0.00 in0.0 mm
10:50 AM 61.0°F16.1°C 53.4°F11.9°C 76% 8.1 mph W13.0 kmh W 13.8 mph22.2 kmh 30.26 in1024.7 mb - 0.00 in0.0 mm 0.00 in0.0 mm
10:55 AM 60.6°F15.9°C 53.0°F11.7°C 76% 12.7 mph WNW20.4 kmh WNW 19.6 mph31.5 kmh 30.26 in1024.7 mb - 0.00 in0.0 mm 0.00 in0.0 mm
11:00 AM 60.5°F15.8°C 52.5°F11.4°C 75% 12.7 mph W20.4 kmh W 18.4 mph29.6 kmh 30.26 in1024.7 mb - 0.00 in0.0 mm 0.00 in0.0 mm
11:10 AM 61.0°F16.1°C 52.7°F11.5°C 74% 12.7 mph WNW20.4 kmh WNW 15.0 mph24.1 kmh 30.27 in1025.1 mb - 0.00 in0.0 mm 0.00 in0.0 mm
11:15 AM 60.8°F16.0°C 52.5°F11.4°C 74% 11.5 mph WNW18.5 kmh WNW 13.8 mph22.2 kmh 30.27 in1025.1 mb - 0.00 in0.0 mm 0.00 in0.0 mm
11:20 AM 60.7°F15.9°C 52.7°F11.5°C 75% 12.7 mph W20.4 kmh W 15.0 mph24.1 kmh 30.27 in1025.1 mb - 0.00 in0.0 mm 0.00 in0.0 mm
11:25 AM 61.4°F16.3°C 53.4°F11.9°C 75% 6.9 mph WNW11.1 kmh WNW 10.4 mph16.7 kmh 30.27 in1025.1 mb - 0.00 in0.0 mm 0.00 in0.0 mm
11:30 AM 62.1°F16.7°C 53.7°F12.1°C 74% 6.9 mph NW11.1 kmh NW 11.5 mph18.5 kmh 30.27 in1025.1 mb - 0.00 in0.0 mm 0.00 in0.0 mm
11:35 AM 62.0°F16.7°C 53.2°F11.8°C 73% 8.1 mph W13.0 kmh W 11.5 mph18.5 kmh 30.27 in1025.1 mb - 0.00 in0.0 mm 0.00 in0.0 mm
11:40 AM 62.1°F16.7°C 52.6°F11.4°C 71% 13.8 mph NW22.2 kmh NW 17.3 mph27.8 kmh 30.27 in1025.1 mb - 0.00 in0.0 mm 0.00 in0.0 mm
11:45 AM 62.5°F16.9°C 53.0°F11.7°C 71% 12.7 mph WNW20.4 kmh WNW 17.3 mph27.8 kmh 30.27 in1025.1 mb - 0.00 in0.0 mm 0.00 in0.0 mm
11:50 AM 62.4°F16.9°C 52.4°F11.3°C 70% 10.4 mph W16.7 kmh W 16.1 mph25.9 kmh 30.27 in1025.1 mb - 0.00 in0.0 mm 0.00 in0.0 mm
11:55 AM 62.1°F16.7°C 52.6°F11.4°C 71% 12.7 mph WNW20.4 kmh WNW 17.3 mph27.8 kmh 30.27 in1025.1 mb - 0.00 in0.0 mm 0.00 in0.0 mm
12:00 PM 62.3°F16.8°C 53.2°F11.8°C 72% 9.2 mph NW14.8 kmh NW 11.5 mph18.5 kmh 30.27 in1025.1 mb - 0.00 in0.0 mm 0.00 in0.0 mm
12:10 PM 63.0°F17.2°C 53.4°F11.9°C 71% 11.5 mph WNW18.5 kmh WNW 16.1 mph25.9 kmh 30.27 in1025.1 mb - 0.00 in0.0 mm 0.00 in0.0 mm
12:15 PM 62.8°F17.1°C 52.9°F11.6°C 70% 12.7 mph WNW20.4 kmh WNW 15.0 mph24.1 kmh 30.27 in1025.1 mb - 0.00 in0.0 mm 0.00 in0.0 mm
12:20 PM 62.6°F17.0°C 52.6°F11.4°C 70% 10.4 mph NW16.7 kmh NW 12.7 mph20.4 kmh 30.27 in1025.1 mb - 0.00 in0.0 mm 0.00 in0.0 mm
12:25 PM 62.4°F16.9°C 52.9°F11.6°C 71% 10.4 mph NW16.7 kmh NW 11.5 mph18.5 kmh 30.27 in1025.1 mb - 0.00 in0.0 mm 0.00 in0.0 mm
12:30 PM 62.3°F16.8°C 53.5°F11.9°C 73% 9.2 mph NW14.8 kmh NW 12.7 mph20.4 kmh 30.27 in1025.1 mb - 0.00 in0.0 mm 0.00 in0.0 mm
12:35 PM 62.2°F16.8°C 53.0°F11.7°C 72% 9.2 mph NW14.8 kmh NW 11.5 mph18.5 kmh 30.27 in1025.1 mb - 0.00 in0.0 mm 0.00 in0.0 mm
12:40 PM 62.2°F16.8°C 53.1°F11.7°C 72% 12.7 mph WNW20.4 kmh WNW 17.3 mph27.8 kmh 30.27 in1025.1 mb - 0.00 in0.0 mm 0.00 in0.0 mm
12:45 PM 62.1°F16.7°C 52.6°F11.4°C 71% 10.4 mph WNW16.7 kmh WNW 13.8 mph22.2 kmh 30.27 in1025.1 mb - 0.00 in0.0 mm 0.00 in0.0 mm
12:50 PM 62.1°F16.7°C 53.0°F11.7°C 72% 10.4 mph WNW16.7 kmh WNW 10.4 mph16.7 kmh 30.27 in1025.1 mb - 0.00 in0.0 mm 0.00 in0.0 mm
12:55 PM 62.0°F16.7°C 52.9°F11.6°C 72% 9.2 mph WNW14.8 kmh WNW 11.5 mph18.5 kmh 30.27 in1025.1 mb - 0.00 in0.0 mm 0.00 in0.0 mm
01:00 PM 62.5°F16.9°C 53.3°F11.8°C 72% 8.1 mph NW13.0 kmh NW 10.4 mph16.7 kmh 30.27 in1025.1 mb - 0.00 in0.0 mm 0.00 in0.0 mm
01:10 PM 62.2°F16.8°C 53.1°F11.7°C 72% 9.2 mph NW14.8 kmh NW 11.5 mph18.5 kmh 30.27 in1025.1 mb - 0.00 in0.0 mm 0.00 in0.0 mm
01:15 PM 62.2°F16.8°C 53.0°F11.7°C 72% 11.5 mph W18.5 kmh W 15.0 mph24.1 kmh 30.26 in1024.7 mb - 0.00 in0.0 mm 0.00 in0.0 mm
01:20 PM 63.6°F17.6°C 54.0°F12.2°C 71% 10.4 mph W16.7 kmh W 17.3 mph27.8 kmh 30.26 in1024.7 mb - 0.00 in0.0 mm 0.00 in0.0 mm
01:25 PM 63.0°F17.2°C 53.8°F12.1°C 72% 9.2 mph WNW14.8 kmh WNW 16.1 mph25.9 kmh 30.27 in1025.1 mb - 0.00 in0.0 mm 0.00 in0.0 mm
01:30 PM 62.8°F17.1°C 53.6°F12.0°C 72% 11.5 mph WNW18.5 kmh WNW 15.0 mph24.1 kmh 30.26 in1024.7 mb - 0.00 in0.0 mm 0.00 in0.0 mm
01:35 PM 62.5°F16.9°C 53.3°F11.8°C 72% 13.8 mph WNW22.2 kmh WNW 15.0 mph24.1 kmh 30.26 in1024.7 mb - 0.00 in0.0 mm 0.00 in0.0 mm
01:40 PM 62.7°F17.1°C 53.5°F11.9°C 72% 11.5 mph WNW18.5 kmh WNW 18.4 mph29.6 kmh 30.26 in1024.7 mb - 0.00 in0.0 mm 0.00 in0.0 mm
01:45 PM 62.4°F16.9°C 53.2°F11.8°C 72% 11.5 mph WNW18.5 kmh WNW 13.8 mph22.2 kmh 30.26 in1024.7 mb - 0.00 in0.0 mm 0.00 in0.0 mm
01:50 PM 63.1°F17.3°C 53.9°F12.2°C 72% 9.2 mph W14.8 kmh W 11.5 mph18.5 kmh 30.26 in1024.7 mb - 0.00 in0.0 mm 0.00 in0.0 mm
01:55 PM 64.0°F17.8°C 54.4°F12.4°C 71% 11.5 mph WNW18.5 kmh WNW 18.4 mph29.6 kmh 30.25 in1024.4 mb - 0.00 in0.0 mm 0.00 in0.0 mm
02:00 PM 63.9°F17.7°C 54.3°F12.4°C 71% 10.4 mph NW16.7 kmh NW 17.3 mph27.8 kmh 30.25 in1024.4 mb - 0.00 in0.0 mm 0.00 in0.0 mm
02:10 PM 65.0°F18.3°C 55.0°F12.8°C 70% 10.4 mph W16.7 kmh W 15.0 mph24.1 kmh 30.25 in1024.4 mb - 0.00 in0.0 mm 0.00 in0.0 mm
02:15 PM 66.1°F18.9°C 54.8°F12.7°C 67% 11.5 mph NW18.5 kmh NW 13.8 mph22.2 kmh 30.25 in1024.4 mb - 0.00 in0.0 mm 0.00 in0.0 mm
02:20 PM 64.9°F18.3°C 54.1°F12.3°C 68% 9.2 mph NW14.8 kmh NW 11.5 mph18.5 kmh 30.25 in1024.4 mb - 0.00 in0.0 mm 0.00 in0.0 mm
02:25 PM 64.0°F17.8°C 53.2°F11.8°C 68% 10.4 mph WNW16.7 kmh WNW 11.5 mph18.5 kmh 30.25 in1024.4 mb - 0.00 in0.0 mm 0.00 in0.0 mm
02:30 PM 65.1°F18.4°C 54.2°F12.3°C 68% 11.5 mph WNW18.5 kmh WNW 12.7 mph20.4 kmh 30.25 in1024.4 mb - 0.00 in0.0 mm 0.00 in0.0 mm
02:35 PM 65.4°F18.6°C 55.4°F13.0°C 70% 11.5 mph WNW18.5 kmh WNW 17.3 mph27.8 kmh 30.25 in1024.4 mb - 0.00 in0.0 mm 0.00 in0.0 mm
02:40 PM 65.6°F18.7°C 54.7°F12.6°C 68% 9.2 mph W14.8 kmh W 12.7 mph20.4 kmh 30.25 in1024.4 mb - 0.00 in0.0 mm 0.00 in0.0 mm
02:45 PM 65.7°F18.7°C 54.0°F12.2°C 66% 10.4 mph WSW16.7 kmh WSW 15.0 mph24.1 kmh 30.24 in1024.0 mb - 0.00 in0.0 mm 0.00 in0.0 mm
02:50 PM 66.2°F19.0°C 53.2°F11.8°C 63% 15.0 mph WNW24.1 kmh WNW 16.1 mph25.9 kmh 30.25 in1024.4 mb - 0.00 in0.0 mm 0.00 in0.0 mm
02:55 PM 65.5°F18.6°C 53.4°F11.9°C 65% 10.4 mph WNW16.7 kmh WNW 12.7 mph20.4 kmh 30.24 in1024.0 mb - 0.00 in0.0 mm 0.00 in0.0 mm
03:00 PM 66.2°F19.0°C 54.9°F12.7°C 67% 11.5 mph WNW18.5 kmh WNW 16.1 mph25.9 kmh 30.24 in1024.0 mb - 0.00 in0.0 mm 0.00 in0.0 mm
03:10 PM 66.4°F19.1°C 54.3°F12.4°C 65% 12.7 mph W20.4 kmh W 15.0 mph24.1 kmh 30.24 in1024.0 mb - 0.00 in0.0 mm 0.00 in0.0 mm
03:15 PM 67.5°F19.7°C 54.5°F12.5°C 63% 12.7 mph WNW20.4 kmh WNW 18.4 mph29.6 kmh 30.24 in1024.0 mb - 0.00 in0.0 mm 0.00 in0.0 mm
03:20 PM 66.5°F19.2°C 53.5°F11.9°C 63% 12.7 mph WNW20.4 kmh WNW 16.1 mph25.9 kmh 30.24 in1024.0 mb - 0.00 in0.0 mm 0.00 in0.0 mm
03:25 PM 66.1°F18.9°C 54.9°F12.7°C 67% 9.2 mph WNW14.8 kmh WNW 11.5 mph18.5 kmh 30.24 in1024.0 mb - 0.00 in0.0 mm 0.00 in0.0 mm
03:30 PM 66.2°F19.0°C 53.7°F12.1°C 64% 11.5 mph WNW18.5 kmh WNW 15.0 mph24.1 kmh 30.24 in1024.0 mb - 0.00 in0.0 mm 0.00 in0.0 mm
03:35 PM 65.6°F18.7°C 53.1°F11.7°C 64% 9.2 mph NW14.8 kmh NW 11.5 mph18.5 kmh 30.24 in1024.0 mb - 0.00 in0.0 mm 0.00 in0.0 mm
03:40 PM 66.4°F19.1°C 54.7°F12.6°C 66% 9.2 mph WNW14.8 kmh WNW 11.5 mph18.5 kmh 30.24 in1024.0 mb - 0.00 in0.0 mm 0.00 in0.0 mm
03:45 PM 67.1°F19.5°C 54.1°F12.3°C 63% 12.7 mph WNW20.4 kmh WNW 17.3 mph27.8 kmh 30.24 in1024.0 mb - 0.00 in0.0 mm 0.00 in0.0 mm
03:50 PM 66.5°F19.2°C 54.4°F12.4°C 65% 11.5 mph W18.5 kmh W 16.1 mph25.9 kmh 30.24 in1024.0 mb - 0.00 in0.0 mm 0.00 in0.0 mm
03:55 PM 67.0°F19.4°C 55.2°F12.9°C 66% 11.5 mph WNW18.5 kmh WNW 15.0 mph24.1 kmh 30.24 in1024.0 mb - 0.00 in0.0 mm 0.00 in0.0 mm
04:00 PM 66.9°F19.4°C 54.3°F12.4°C 64% 11.5 mph WNW18.5 kmh WNW 15.0 mph24.1 kmh 30.24 in1024.0 mb - 0.00 in0.0 mm 0.00 in0.0 mm
04:10 PM 66.3°F19.1°C 54.2°F12.3°C 65% 10.4 mph WNW16.7 kmh WNW 12.7 mph20.4 kmh 30.24 in1024.0 mb - 0.00 in0.0 mm 0.00 in0.0 mm
04:15 PM 66.3°F19.1°C 53.8°F12.1°C 64% 11.5 mph WNW18.5 kmh WNW 15.0 mph24.1 kmh 30.24 in1024.0 mb - 0.00 in0.0 mm 0.00 in0.0 mm
04:20 PM 66.4°F19.1°C 54.7°F12.6°C 66% 11.5 mph W18.5 kmh W 13.8 mph22.2 kmh 30.24 in1024.0 mb - 0.00 in0.0 mm 0.00 in0.0 mm
04:25 PM 65.7°F18.7°C 53.6°F12.0°C 65% 13.8 mph W22.2 kmh W 16.1 mph25.9 kmh 30.24 in1024.0 mb - 0.00 in0.0 mm 0.00 in0.0 mm
04:30 PM 65.6°F18.7°C 54.0°F12.2°C 66% 11.5 mph W18.5 kmh W 12.7 mph20.4 kmh 30.24 in1024.0 mb - 0.00 in0.0 mm 0.00 in0.0 mm
04:35 PM 65.7°F18.7°C 53.7°F12.1°C 65% 13.8 mph W22.2 kmh W 16.1 mph25.9 kmh 30.24 in1024.0 mb - 0.00 in0.0 mm 0.00 in0.0 mm
04:40 PM 65.7°F18.7°C 54.0°F12.2°C 66% 10.4 mph W16.7 kmh W 18.4 mph29.6 kmh 30.24 in1024.0 mb - 0.00 in0.0 mm 0.00 in0.0 mm
04:45 PM 65.6°F18.7°C 53.6°F12.0°C 65% 13.8 mph W22.2 kmh W 17.3 mph27.8 kmh 30.24 in1024.0 mb - 0.00 in0.0 mm 0.00 in0.0 mm
04:50 PM 65.5°F18.6°C 53.4°F11.9°C 65% 10.4 mph NW16.7 kmh NW 12.7 mph20.4 kmh 30.24 in1024.0 mb - 0.00 in0.0 mm 0.00 in0.0 mm
04:55 PM 65.8°F18.8°C 54.1°F12.3°C 66% 12.7 mph W20.4 kmh W 16.1 mph25.9 kmh 30.24 in1024.0 mb - 0.00 in0.0 mm 0.00 in0.0 mm
05:00 PM 65.1°F18.4°C 53.5°F11.9°C 66% 11.5 mph W18.5 kmh W 15.0 mph24.1 kmh 30.24 in1024.0 mb - 0.00 in0.0 mm 0.00 in0.0 mm
05:10 PM 65.1°F18.4°C 53.4°F11.9°C 66% 10.4 mph W16.7 kmh W 17.3 mph27.8 kmh 30.24 in1024.0 mb - 0.00 in0.0 mm 0.00 in0.0 mm
05:15 PM 64.7°F18.2°C 53.0°F11.7°C 66% 10.4 mph W16.7 kmh W 16.1 mph25.9 kmh 30.24 in1024.0 mb - 0.00 in0.0 mm 0.00 in0.0 mm
05:20 PM 64.5°F18.1°C 52.9°F11.6°C 66% 13.8 mph WNW22.2 kmh WNW 18.4 mph29.6 kmh 30.24 in1024.0 mb - 0.00 in0.0 mm 0.00 in0.0 mm
05:25 PM 64.6°F18.1°C 53.0°F11.7°C 66% 11.5 mph W18.5 kmh W 15.0 mph24.1 kmh 30.24 in1024.0 mb - 0.00 in0.0 mm 0.00 in0.0 mm
05:30 PM 64.5°F18.1°C 53.3°F11.8°C 67% 9.2 mph W14.8 kmh W 11.5 mph18.5 kmh 30.24 in1024.0 mb - 0.00 in0.0 mm 0.00 in0.0 mm
05:35 PM 64.9°F18.3°C 53.3°F11.8°C 66% 13.8 mph W22.2 kmh W 18.4 mph29.6 kmh 30.24 in1024.0 mb - 0.00 in0.0 mm 0.00 in0.0 mm
05:40 PM 64.3°F17.9°C 52.7°F11.5°C 66% 13.8 mph W22.2 kmh W 17.3 mph27.8 kmh 30.24 in1024.0 mb - 0.00 in0.0 mm 0.00 in0.0 mm
05:45 PM 64.0°F17.8°C 52.9°F11.6°C 67% 12.7 mph WNW20.4 kmh WNW 16.1 mph25.9 kmh 30.24 in1024.0 mb - 0.00 in0.0 mm 0.00 in0.0 mm
05:50 PM 64.0°F17.8°C 52.8°F11.6°C 67% 12.7 mph WNW20.4 kmh WNW 15.0 mph24.1 kmh 30.24 in1024.0 mb - 0.00 in0.0 mm 0.00 in0.0 mm
05:55 PM 63.8°F17.7°C 52.6°F11.4°C 67% 12.7 mph W20.4 kmh W 17.3 mph27.8 kmh 30.24 in1024.0 mb - 0.00 in0.0 mm 0.00 in0.0 mm
06:00 PM 63.6°F17.6°C 52.5°F11.4°C 67% 13.8 mph WNW22.2 kmh WNW 15.0 mph24.1 kmh 30.24 in1024.0 mb - 0.00 in0.0 mm 0.00 in0.0 mm
06:10 PM 63.4°F17.4°C 52.3°F11.3°C 67% 12.7 mph W20.4 kmh W 16.1 mph25.9 kmh 30.24 in1024.0 mb - 0.00 in0.0 mm 0.00 in0.0 mm
06:15 PM 63.3°F17.4°C 52.9°F11.6°C 69% 11.5 mph W18.5 kmh W 19.6 mph31.5 kmh 30.24 in1024.0 mb - 0.00 in0.0 mm 0.00 in0.0 mm
06:20 PM 62.9°F17.2°C 52.1°F11.2°C 68% 13.8 mph NW22.2 kmh NW 18.4 mph29.6 kmh 30.24 in1024.0 mb - 0.00 in0.0 mm 0.00 in0.0 mm
06:25 PM 62.7°F17.1°C 52.0°F11.1°C 68% 10.4 mph WNW16.7 kmh WNW 13.8 mph22.2 kmh 30.24 in1024.0 mb - 0.00 in0.0 mm 0.00 in0.0 mm
06:30 PM 62.5°F16.9°C 51.8°F11.0°C 68% 11.5 mph WNW18.5 kmh WNW 17.3 mph27.8 kmh 30.24 in1024.0 mb - 0.00 in0.0 mm 0.00 in0.0 mm
06:35 PM 62.1°F16.7°C 51.8°F11.0°C 69% 9.2 mph WNW14.8 kmh WNW 11.5 mph18.5 kmh 30.24 in1024.0 mb - 0.00 in0.0 mm 0.00 in0.0 mm
06:40 PM 62.3°F16.8°C 51.6°F10.9°C 68% 12.7 mph WNW20.4 kmh WNW 16.1 mph25.9 kmh 30.24 in1024.0 mb - 0.00 in0.0 mm 0.00 in0.0 mm
06:45 PM 62.1°F16.7°C 51.4°F10.8°C 68% 10.4 mph NW16.7 kmh NW 12.7 mph20.4 kmh 30.24 in1024.0 mb - 0.00 in0.0 mm 0.00 in0.0 mm
06:50 PM 61.8°F16.6°C 51.5°F10.8°C 69% 12.7 mph WNW20.4 kmh WNW 13.8 mph22.2 kmh 30.24 in1024.0 mb - 0.00 in0.0 mm 0.00 in0.0 mm
06:55 PM 61.5°F16.4°C 51.6°F10.9°C 70% 10.4 mph W16.7 kmh W 16.1 mph25.9 kmh 30.25 in1024.4 mb - 0.00 in0.0 mm 0.00 in0.0 mm
07:00 PM 61.0°F16.1°C 51.1°F10.6°C 70% 11.5 mph W18.5 kmh W 16.1 mph25.9 kmh 30.25 in1024.4 mb - 0.00 in0.0 mm 0.00 in0.0 mm
07:10 PM 60.7°F15.9°C 50.9°F10.5°C 70% 12.7 mph W20.4 kmh W 17.3 mph27.8 kmh 30.25 in1024.4 mb - 0.00 in0.0 mm 0.00 in0.0 mm
07:15 PM 60.5°F15.8°C 50.6°F10.3°C 70% 10.4 mph W16.7 kmh W 12.7 mph20.4 kmh 30.25 in1024.4 mb - 0.00 in0.0 mm 0.00 in0.0 mm
07:20 PM 60.2°F15.7°C 50.8°F10.4°C 71% 10.4 mph W16.7 kmh W 15.0 mph24.1 kmh 30.25 in1024.4 mb - 0.00 in0.0 mm 0.00 in0.0 mm
07:25 PM 60.1°F15.6°C 51.1°F10.6°C 72% 10.4 mph NW16.7 kmh NW 11.5 mph18.5 kmh 30.25 in1024.4 mb - 0.00 in0.0 mm 0.00 in0.0 mm
07:30 PM 59.8°F15.4°C 50.8°F10.4°C 72% 9.2 mph WNW14.8 kmh WNW 11.5 mph18.5 kmh 30.25 in1024.4 mb - 0.00 in0.0 mm 0.00 in0.0 mm
07:35 PM 59.7°F15.4°C 51.0°F10.6°C 73% 6.9 mph WNW11.1 kmh WNW 9.2 mph14.8 kmh 30.25 in1024.4 mb - 0.00 in0.0 mm 0.00 in0.0 mm
07:40 PM 59.7°F15.4°C 50.6°F10.3°C 72% 10.4 mph WNW16.7 kmh WNW 11.5 mph18.5 kmh 30.25 in1024.4 mb - 0.00 in0.0 mm 0.00 in0.0 mm
07:45 PM 59.5°F15.3°C 50.5°F10.3°C 72% 10.4 mph WNW16.7 kmh WNW 11.5 mph18.5 kmh 30.25 in1024.4 mb - 0.00 in0.0 mm 0.00 in0.0 mm
07:50 PM 59.3°F15.2°C 50.2°F10.1°C 72% 10.4 mph WNW16.7 kmh WNW 15.0 mph24.1 kmh 30.25 in1024.4 mb - 0.00 in0.0 mm 0.00 in0.0 mm
07:55 PM 58.9°F14.9°C 50.2°F10.1°C 73% 8.1 mph W13.0 kmh W 10.4 mph16.7 kmh 30.25 in1024.4 mb - 0.00 in0.0 mm 0.00 in0.0 mm
08:00 PM 58.7°F14.8°C 50.4°F10.2°C 74% 8.1 mph WNW13.0 kmh WNW 11.5 mph18.5 kmh 30.26 in1024.7 mb - 0.00 in0.0 mm 0.00 in0.0 mm
08:10 PM 58.5°F14.7°C 50.2°F10.1°C 74% 6.9 mph W11.1 kmh W 6.9 mph11.1 kmh 30.26 in1024.7 mb - 0.00 in0.0 mm 0.00 in0.0 mm
08:15 PM 58.2°F14.6°C 50.3°F10.2°C 75% 6.9 mph WNW11.1 kmh WNW 9.2 mph14.8 kmh 30.27 in1025.1 mb - 0.00 in0.0 mm 0.00 in0.0 mm
08:20 PM 57.9°F14.4°C 50.4°F10.2°C 76% 6.9 mph WNW11.1 kmh WNW 9.2 mph14.8 kmh 30.27 in1025.1 mb - 0.00 in0.0 mm 0.00 in0.0 mm
08:25 PM 57.7°F14.3°C 50.2°F10.1°C 76% 6.9 mph WNW11.1 kmh WNW 9.2 mph14.8 kmh 30.26 in1024.7 mb - 0.00 in0.0 mm 0.00 in0.0 mm
08:30 PM 57.4°F14.1°C 50.3°F10.2°C 77% 5.8 mph W9.3 kmh W 6.9 mph11.1 kmh 30.26 in1024.7 mb - 0.00 in0.0 mm 0.00 in0.0 mm
08:35 PM 56.9°F13.8°C 49.8°F9.9°C 77% 3.5 mph WNW5.6 kmh WNW 6.9 mph11.1 kmh 30.26 in1024.7 mb - 0.00 in0.0 mm 0.00 in0.0 mm
08:40 PM 56.9°F13.8°C 50.1°F10.1°C 78% 5.8 mph WNW9.3 kmh WNW 8.1 mph13.0 kmh 30.27 in1025.1 mb - 0.00 in0.0 mm 0.00 in0.0 mm
08:45 PM 56.4°F13.6°C 49.7°F9.8°C 78% 5.8 mph WNW9.3 kmh WNW 9.2 mph14.8 kmh 30.26 in1024.7 mb - 0.00 in0.0 mm 0.00 in0.0 mm
08:50 PM 56.2°F13.4°C 49.8°F9.9°C 79% 5.8 mph WNW9.3 kmh WNW 6.9 mph11.1 kmh 30.26 in1024.7 mb - 0.00 in0.0 mm 0.00 in0.0 mm
08:55 PM 56.0°F13.3°C 49.6°F9.8°C 79% 4.6 mph W7.4 kmh W 6.9 mph11.1 kmh 30.26 in1024.7 mb - 0.00 in0.0 mm 0.00 in0.0 mm
09:00 PM 55.6°F13.1°C 49.5°F9.7°C 80% 3.5 mph W5.6 kmh W 5.8 mph9.3 kmh 30.26 in1024.7 mb - 0.00 in0.0 mm 0.00 in0.0 mm
09:10 PM 55.0°F12.8°C 49.3°F9.6°C 81% 5.8 mph WNW9.3 kmh WNW 8.1 mph13.0 kmh 30.27 in1025.1 mb - 0.00 in0.0 mm 0.00 in0.0 mm
09:15 PM 54.9°F12.7°C 49.2°F9.6°C 81% 4.6 mph WNW7.4 kmh WNW 6.9 mph11.1 kmh 30.27 in1025.1 mb - 0.00 in0.0 mm 0.00 in0.0 mm
09:20 PM 54.5°F12.5°C 49.2°F9.6°C 82% 6.9 mph WNW11.1 kmh WNW 9.2 mph14.8 kmh 30.27 in1025.1 mb - 0.00 in0.0 mm 0.00 in0.0 mm
09:25 PM 54.5°F12.5°C 49.1°F9.5°C 82% 4.6 mph WNW7.4 kmh WNW 3.5 mph5.6 kmh 30.27 in1025.1 mb - 0.00 in0.0 mm 0.00 in0.0 mm
09:30 PM 54.4°F12.4°C 49.3°F9.6°C 83% 4.6 mph WNW7.4 kmh WNW 4.6 mph7.4 kmh 30.27 in1025.1 mb - 0.00 in0.0 mm 0.00 in0.0 mm
09:35 PM 54.2°F12.3°C 49.1°F9.5°C 83% 4.6 mph WNW7.4 kmh WNW 6.9 mph11.1 kmh 30.27 in1025.1 mb - 0.00 in0.0 mm 0.00 in0.0 mm
09:40 PM 54.0°F12.2°C 49.0°F9.4°C 83% 4.6 mph WNW7.4 kmh WNW 5.8 mph9.3 kmh 30.27 in1025.1 mb - 0.00 in0.0 mm 0.00 in0.0 mm
09:45 PM 53.9°F12.2°C 49.2°F9.6°C 84% 5.8 mph WNW9.3 kmh WNW 6.9 mph11.1 kmh 30.27 in1025.1 mb - 0.00 in0.0 mm 0.00 in0.0 mm
09:50 PM 53.7°F12.1°C 49.0°F9.4°C 84% 4.6 mph WNW7.4 kmh WNW 8.1 mph13.0 kmh 30.27 in1025.1 mb - 0.00 in0.0 mm 0.00 in0.0 mm
09:55 PM 53.6°F12.0°C 48.8°F9.3°C 84% 4.6 mph WNW7.4 kmh WNW 4.6 mph7.4 kmh 30.27 in1025.1 mb - 0.00 in0.0 mm 0.00 in0.0 mm
10:00 PM 53.3°F11.8°C 48.9°F9.4°C 85% 5.8 mph WNW9.3 kmh WNW 8.1 mph13.0 kmh 30.27 in1025.1 mb - 0.00 in0.0 mm 0.00 in0.0 mm
10:10 PM 53.0°F11.7°C 48.6°F9.2°C 85% 3.5 mph WNW5.6 kmh WNW 6.9 mph11.1 kmh 30.27 in1025.1 mb - 0.00 in0.0 mm 0.00 in0.0 mm
10:15 PM 52.7°F11.5°C 48.3°F9.1°C 85% 3.5 mph WNW5.6 kmh WNW 3.5 mph5.6 kmh 30.28 in1025.4 mb - 0.00 in0.0 mm 0.00 in0.0 mm
10:20 PM 52.5°F11.4°C 48.1°F8.9°C 85% 3.5 mph NW5.6 kmh NW 3.5 mph5.6 kmh 30.27 in1025.1 mb - 0.00 in0.0 mm 0.00 in0.0 mm
10:25 PM 52.4°F11.3°C 48.3°F9.1°C 86% 3.5 mph WNW5.6 kmh WNW 4.6 mph7.4 kmh 30.27 in1025.1 mb - 0.00 in0.0 mm 0.00 in0.0 mm
10:30 PM 52.5°F11.4°C 48.8°F9.3°C 87% 3.5 mph NW5.6 kmh NW 3.5 mph5.6 kmh 30.28 in1025.4 mb - 0.00 in0.0 mm 0.00 in0.0 mm
10:35 PM 52.4°F11.3°C 48.3°F9.1°C 86% 2.3 mph WNW3.7 kmh WNW 3.5 mph5.6 kmh 30.27 in1025.1 mb - 0.00 in0.0 mm 0.00 in0.0 mm
10:40 PM 51.8°F11.0°C 47.7°F8.7°C 86% 3.5 mph WNW5.6 kmh WNW 3.5 mph5.6 kmh 30.27 in1025.1 mb - 0.00 in0.0 mm 0.00 in0.0 mm
10:45 PM 51.6°F10.9°C 47.9°F8.8°C 87% 3.5 mph WNW5.6 kmh WNW 3.5 mph5.6 kmh 30.27 in1025.1 mb - 0.00 in0.0 mm 0.00 in0.0 mm
10:50 PM 51.7°F10.9°C 48.0°F8.9°C 87% 3.5 mph WNW5.6 kmh WNW 3.5 mph5.6 kmh 30.27 in1025.1 mb - 0.00 in0.0 mm 0.00 in0.0 mm
10:55 PM 51.6°F10.9°C 48.2°F9.0°C 88% 4.6 mph WNW7.4 kmh WNW 6.9 mph11.1 kmh 30.27 in1025.1 mb - 0.00 in0.0 mm 0.00 in0.0 mm
11:00 PM 51.5°F10.8°C 47.8°F8.8°C 87% 4.6 mph WNW7.4 kmh WNW 6.9 mph11.1 kmh 30.27 in1025.1 mb - 0.00 in0.0 mm 0.00 in0.0 mm
11:10 PM 51.3°F10.7°C 47.9°F8.8°C 88% 3.5 mph WNW5.6 kmh WNW 3.5 mph5.6 kmh 30.27 in1025.1 mb - 0.00 in0.0 mm 0.00 in0.0 mm
11:15 PM 51.4°F10.8°C 48.0°F8.9°C 88% 3.5 mph W5.6 kmh W 5.8 mph9.3 kmh 30.27 in1025.1 mb - 0.00 in0.0 mm 0.00 in0.0 mm
11:20 PM 51.4°F10.8°C 48.0°F8.9°C 88% 3.5 mph W5.6 kmh W 5.8 mph9.3 kmh 30.27 in1025.1 mb - 0.00 in0.0 mm 0.00 in0.0 mm
11:25 PM 51.3°F10.7°C 47.9°F8.8°C 88% 3.5 mph W5.6 kmh W 3.5 mph5.6 kmh 30.27 in1025.1 mb - 0.00 in0.0 mm 0.00 in0.0 mm
11:30 PM 50.9°F10.5°C 47.5°F8.6°C 88% 2.3 mph WNW3.7 kmh WNW 3.5 mph5.6 kmh 30.27 in1025.1 mb - 0.00 in0.0 mm 0.00 in0.0 mm
11:35 PM 51.0°F10.6°C 47.6°F8.7°C 88% 3.5 mph WNW5.6 kmh WNW 3.5 mph5.6 kmh 30.27 in1025.1 mb - 0.00 in0.0 mm 0.00 in0.0 mm
11:40 PM 51.0°F10.6°C 47.6°F8.7°C 88% 3.5 mph WNW5.6 kmh WNW 4.6 mph7.4 kmh 30.27 in1025.1 mb - 0.00 in0.0 mm 0.00 in0.0 mm
11:45 PM 51.1°F10.6°C 48.0°F8.9°C 89% 4.6 mph WNW7.4 kmh WNW 8.1 mph13.0 kmh 30.27 in1025.1 mb - 0.00 in0.0 mm 0.00 in0.0 mm
11:50 PM 51.3°F10.7°C 48.2°F9.0°C 89% 4.6 mph NW7.4 kmh NW 6.9 mph11.1 kmh 30.27 in1025.1 mb - 0.00 in0.0 mm 0.00 in0.0 mm
11:55 PM 51.5°F10.8°C 48.1°F8.9°C 88% 5.8 mph NW9.3 kmh NW 8.1 mph13.0 kmh 30.27 in1025.1 mb - 0.00 in0.0 mm 0.00 in0.0 mm